BYU2
, Provo
Last Weather Update:09/29/2011 11:00:00 PM
Date
ETo
ETc
Rain
Irrigation
Req
Temp
Max
Temp
Min
Temp
Avg
Avg RH
Avg Wind
Avg Solar
inches
inches
incehs
inches
F
F
F
%
%
watts/m2
08/01/2011 0.14" 0.12" 0.16" -0.04" 82.5° 67.7° 73.6° 69.8% 1.8 MPH 192.5w/m2
08/02/2011 0.21" 0.19" 0.00" 0.19" 91.0° 62.1° 76.0° 56.6% 1.6 MPH 317.0w/m2
08/03/2011 0.15" 0.13" 0.00" 0.13" 82.2° 65.7° 73.7° 56.6% 3.0 MPH 192.4w/m2
08/04/2011 0.20" 0.17" 0.04" 0.13" 89.2° 61.9° 74.2° 55.1% 2.0 MPH 275.4w/m2
08/05/2011 0.25" 0.21" 0.00" 0.21" 92.2° 59.4° 76.1° 40.3% 2.3 MPH 338.6w/m2
08/06/2011 0.25" 0.22" 0.00" 0.22" 91.0° 57.8° 75.6° 31.6% 2.7 MPH 342.3w/m2
08/07/2011 0.24" 0.20" 0.00" 0.20" 91.1° 57.3° 75.0° 28.0% 2.3 MPH 337.4w/m2
08/08/2011 0.23" 0.20" 0.00" 0.20" 93.4° 60.4° 77.2° 32.1% 2.1 MPH 331.2w/m2
08/09/2011 0.24" 0.20" 0.00" 0.20" 91.5° 58.4° 76.5° 31.5% 2.3 MPH 327.8w/m2
08/10/2011 0.24" 0.20" 0.00" 0.20" 92.2° 58.0° 75.7° 35.5% 2.3 MPH 327.4w/m2
08/11/2011 0.24" 0.20" 0.00" 0.20" 92.3° 61.3° 77.1° 35.0% 2.5 MPH 316.8w/m2
08/12/2011 0.22" 0.18" 0.00" 0.18" 92.3° 59.0° 75.5° 39.7% 1.9 MPH 317.7w/m2
08/13/2011 0.23" 0.18" 0.01" 0.17" 96.4° 60.8° 77.4° 40.1% 2.5 MPH 301.2w/m2
08/14/2011 0.22" 0.18" 0.02" 0.16" 90.1° 67.4° 79.0° 45.2% 3.1 MPH 291.1w/m2
08/15/2011 0.20" 0.16" 0.07" 0.09" 91.7° 63.2° 75.0° 56.0% 3.5 MPH 259.3w/m2
08/16/2011 0.21" 0.17" 0.00" 0.17" 90.1° 60.9° 74.7° 54.0% 1.8 MPH 305.4w/m2
08/17/2011 0.23" 0.18" 0.00" 0.18" 94.2° 59.7° 77.2° 39.0% 2.0 MPH 313.3w/m2
08/18/2011 0.23" 0.18" 0.00" 0.18" 94.7° 58.8° 76.8° 37.1% 1.9 MPH 309.4w/m2
08/19/2011 0.20" 0.15" 0.00" 0.15" 94.2° 68.6° 80.0° 40.4% 2.0 MPH 270.4w/m2
08/20/2011 0.21" 0.16" 0.06" 0.10" 92.9° 64.8° 77.5° 45.7% 2.1 MPH 275.3w/m2
08/21/2011 0.22" 0.17" 0.00" 0.17" 93.5° 61.9° 77.7° 43.2% 1.8 MPH 303.0w/m2
08/22/2011 0.21" 0.16" 0.00" 0.16" 94.4° 62.6° 78.8° 40.4% 1.9 MPH 294.4w/m2
08/23/2011 0.21" 0.15" 0.00" 0.15" 96.9° 63.6° 79.6° 38.2% 1.5 MPH 295.9w/m2
08/24/2011 0.02" 0.01" 0.00" 0.01" 77.5° 63.6° 69.5° 50.4% 1.5 MPH 68.7w/m2
08/25/2011 0.21" 0.15" 0.00" 0.15" 94.5° 68.9° 80.1° 40.2% 2.6 MPH 221.8w/m2
08/26/2011 0.21" 0.15" 0.00" 0.15" 95.9° 64.6° 79.7° 43.2% 2.1 MPH 267.2w/m2
08/27/2011 0.20" 0.15" 0.19" -0.04" 94.9° 66.7° 80.1° 47.4% 2.0 MPH 274.8w/m2
08/28/2011 0.19" 0.13" 0.50" -0.37" 89.7° 62.5° 74.8° 66.3% 2.7 MPH 268.5w/m2
08/29/2011 0.20" 0.14" 0.08" 0.06" 90.2° 61.3° 74.3° 61.4% 2.2 MPH 276.6w/m2
08/30/2011 0.21" 0.15" 0.00" 0.15" 92.6° 63.3° 77.9° 43.9% 2.4 MPH 273.4w/m2
08/31/2011 0.24" 0.17" 0.00" 0.17" 92.3° 63.0° 78.9° 36.6% 4.4 MPH 261.5w/m2
Totals: 6.41" 5.12" 1.13" 3.99" 96.9° 57.3° 76.6° 44.5% 2.3 MPH 282.2w/m2